Time;durP1;ratioP1;P1;durP2;ratioP2;P2;SDS_P1;SDS_P2;PMS_P1;PMS_P2;Temp;Humidity;BMP_temperature;BMP_pressure;BME280_temperature;BME280_humidity;BME280_pressure;Samples;Min_cycle;Max_cycle;Signal;HPM_P1;HPM_P2
2024/01/23 00:00:14;;;;;;;18.77;3.40;;;9.60;99.90;;;;;;5089465;28;20508;-82
2024/01/23 00:02:40;;;;;;;24.05;3.75;;;9.60;99.90;;;;;;5090833;28;20020;-83
2024/01/23 00:05:06;;;;;;;26.42;4.90;;;9.60;99.90;;;;;;5090952;28;20111;-83
2024/01/23 00:07:32;;;;;;;17.90;3.47;;;9.50;99.90;;;;;;5091616;28;20074;-83
2024/01/23 00:09:57;;;;;;;23.48;4.47;;;9.60;99.90;;;;;;5092053;28;20028;-82
2024/01/23 00:12:23;;;;;;;18.15;4.30;;;9.90;99.90;;;;;;5091571;28;20024;-83
2024/01/23 00:14:48;;;;;;;20.90;4.18;;;9.60;99.90;;;;;;5092237;28;20032;-82
2024/01/23 00:17:14;;;;;;;21.38;5.00;;;9.70;99.90;;;;;;5079214;28;20076;-82
2024/01/23 00:19:40;;;;;;;18.90;3.42;;;9.80;99.90;;;;;;5085606;28;20044;-83
2024/01/23 00:22:06;;;;;;;18.55;3.92;;;9.90;99.90;;;;;;5091215;28;20077;-83
2024/01/23 00:24:31;;;;;;;15.43;3.55;;;9.80;99.90;;;;;;5091127;28;20391;-83
2024/01/23 00:26:57;;;;;;;15.10;4.28;;;9.60;99.90;;;;;;5091079;28;20016;-82
2024/01/23 00:29:23;;;;;;;22.17;4.30;;;9.80;99.90;;;;;;5091802;28;20042;-83
2024/01/23 00:31:48;;;;;;;18.73;4.05;;;9.80;99.90;;;;;;5083019;28;20028;-82
2024/01/23 00:34:14;;;;;;;26.02;4.30;;;10.40;99.90;;;;;;5069613;28;20032;-82
2024/01/23 00:36:41;;;;;;;21.08;3.83;;;9.70;99.90;;;;;;5070742;28;20017;-83
2024/01/23 00:39:06;;;;;;;14.90;3.50;;;9.60;99.90;;;;;;5070610;28;20068;-83
2024/01/23 00:41:34;;;;;;;15.88;3.83;;;9.60;99.90;;;;;;5069022;28;20105;-83
2024/01/23 00:44:00;;;;;;;21.67;3.73;;;9.70;99.90;;;;;;5070683;28;20020;-82
2024/01/23 00:46:25;;;;;;;23.25;4.30;;;9.80;99.90;;;;;;5074007;28;20154;-82
2024/01/23 00:48:51;;;;;;;22.90;3.97;;;9.70;99.90;;;;;;5091515;28;20024;-83
2024/01/23 00:51:16;;;;;;;19.60;3.70;;;9.60;99.90;;;;;;5090694;28;20498;-83
2024/01/23 00:53:42;;;;;;;22.30;3.60;;;9.80;99.90;;;;;;5090590;28;20059;-83
2024/01/23 00:56:08;;;;;;;20.85;4.07;;;9.50;99.90;;;;;;5090586;28;20020;-82
2024/01/23 00:58:34;;;;;;;16.70;3.40;;;9.80;99.90;;;;;;5090479;28;20028;-83
2024/01/23 01:01:00;;;;;;;15.77;3.53;;;9.60;99.90;;;;;;5089043;28;20483;-82
2024/01/23 01:03:25;;;;;;;19.58;3.63;;;9.80;99.90;;;;;;5070221;28;20095;-82
2024/01/23 01:05:51;;;;;;;19.95;4.30;;;10.10;99.90;;;;;;5071056;28;20020;-83
2024/01/23 01:08:16;;;;;;;22.92;3.92;;;9.80;99.90;;;;;;5070056;28;20025;-83
2024/01/23 01:10:42;;;;;;;17.83;2.72;;;9.80;99.90;;;;;;5070075;28;20457;-83
2024/01/23 01:13:09;;;;;;;18.35;2.75;;;9.70;99.90;;;;;;5069990;28;20074;-83
2024/01/23 01:15:34;;;;;;;20.45;3.40;;;9.70;99.90;;;;;;5069993;28;20036;-83
2024/01/23 01:18:00;;;;;;;21.98;3.42;;;9.90;99.90;;;;;;5070068;28;20027;-83
2024/01/23 01:20:25;;;;;;;23.50;4.35;;;9.90;99.90;;;;;;5069690;28;20043;-82
2024/01/23 01:22:51;;;;;;;19.90;3.60;;;9.50;99.90;;;;;;5070669;28;20017;-82
2024/01/23 01:25:18;;;;;;;19.92;3.20;;;9.40;99.90;;;;;;5069795;28;20028;-83
2024/01/23 01:27:43;;;;;;;21.85;3.67;;;9.30;99.90;;;;;;5069799;28;20476;-83
2024/01/23 01:30:09;;;;;;;20.67;3.70;;;9.50;99.90;;;;;;5069453;28;20062;-83
2024/01/23 01:32:35;;;;;;;31.00;4.60;;;9.30;99.90;;;;;;5069583;28;20021;-82
2024/01/23 01:35:00;;;;;;;22.45;4.93;;;9.20;99.90;;;;;;5069236;28;21144;-83
2024/01/23 01:37:26;;;;;;;29.77;4.97;;;9.20;99.90;;;;;;5070031;28;20028;-82
2024/01/23 01:39:52;;;;;;;24.92;4.25;;;9.20;99.90;;;;;;5070185;28;20041;-82
2024/01/23 01:42:17;;;;;;;25.08;3.90;;;8.80;99.90;;;;;;5069448;28;20025;-83
2024/01/23 01:44:43;;;;;;;18.45;3.97;;;9.30;99.90;;;;;;5069219;28;20059;-82
2024/01/23 01:47:10;;;;;;;22.58;4.35;;;9.30;99.90;;;;;;5069433;28;20033;-82
2024/01/23 01:49:36;;;;;;;23.02;4.13;;;9.30;99.90;;;;;;5069268;28;20107;-84
2024/01/23 01:52:02;;;;;;;22.00;4.93;;;9.30;99.90;;;;;;5069028;28;20493;-83
2024/01/23 01:54:29;;;;;;;26.10;3.95;;;9.40;99.90;;;;;;5069146;28;20024;-83
2024/01/23 01:56:55;;;;;;;16.88;3.35;;;9.40;99.90;;;;;;5070053;28;20071;-83
2024/01/23 01:59:21;;;;;;;23.02;4.57;;;9.40;99.90;;;;;;5069248;28;20036;-84
2024/01/23 02:01:46;;;;;;;22.95;4.22;;;9.40;99.90;;;;;;5069192;28;20233;-84
2024/01/23 02:04:13;;;;;;;19.77;3.50;;;9.40;99.90;;;;;;5069076;28;20025;-83
2024/01/23 02:06:39;;;;;;;27.85;4.13;;;9.60;99.90;;;;;;5069279;28;20032;-84
2024/01/23 02:09:05;;;;;;;16.30;3.47;;;9.40;99.90;;;;;;5072901;28;20017;-84
2024/01/23 02:11:30;;;;;;;14.45;3.97;;;9.50;99.90;;;;;;5067910;28;20116;-84
2024/01/23 02:13:56;;;;;;;19.65;3.35;;;9.10;99.90;;;;;;5069965;28;20043;-83
2024/01/23 02:16:22;;;;;;;22.40;4.68;;;9.10;99.90;;;;;;5068907;28;20491;-84
2024/01/23 02:18:48;;;;;;;23.45;3.78;;;9.50;99.90;;;;;;5068861;28;20271;-84
2024/01/23 02:21:15;;;;;;;26.92;4.53;;;9.70;99.90;;;;;;5069028;28;20031;-84
2024/01/23 02:23:42;;;;;;;18.55;4.13;;;9.50;99.90;;;;;;5068740;28;20077;-84
2024/01/23 02:26:07;;;;;;;19.40;4.13;;;9.50;99.90;;;;;;5074097;28;20039;-84
2024/01/23 02:28:33;;;;;;;22.55;4.65;;;9.50;99.90;;;;;;5087580;28;20024;-84
2024/01/23 02:30:59;;;;;;;19.70;3.35;;;9.50;99.90;;;;;;5089790;28;20498;-84
2024/01/23 02:33:24;;;;;;;26.08;3.58;;;9.60;99.90;;;;;;5084997;28;20017;-83
2024/01/23 02:35:50;;;;;;;19.83;3.72;;;9.50;99.90;;;;;;5089063;28;20475;-84
2024/01/23 02:38:15;;;;;;;18.15;3.40;;;9.10;99.90;;;;;;5088991;28;20043;-84
2024/01/23 02:40:41;;;;;;;20.33;3.70;;;9.30;99.90;;;;;;5088901;28;20032;-84
2024/01/23 02:43:06;;;;;;;18.35;3.60;;;9.50;99.90;;;;;;5087769;28;20476;-84
2024/01/23 02:45:32;;;;;;;19.77;3.90;;;9.40;99.90;;;;;;5087085;28;20027;-83
2024/01/23 02:47:58;;;;;;;21.92;4.43;;;9.40;99.90;;;;;;5089833;28;20077;-83
2024/01/23 02:50:23;;;;;;;25.23;4.32;;;9.40;99.90;;;;;;5088843;28;20085;-83
2024/01/23 02:52:49;;;;;;;27.38;4.80;;;9.80;99.90;;;;;;5088940;28;20383;-83
2024/01/23 02:55:15;;;;;;;26.80;4.55;;;9.30;99.90;;;;;;5088868;28;20024;-83
2024/01/23 02:57:41;;;;;;;15.85;3.78;;;9.30;99.90;;;;;;5090574;28;20486;-83
2024/01/23 03:00:08;;;;;;;23.08;3.95;;;9.30;99.90;;;;;;5090900;28;20497;-83
2024/01/23 03:02:34;;;;;;;27.63;4.05;;;9.30;99.90;;;;;;5072786;28;20024;-83
2024/01/23 03:05:00;;;;;;;31.08;3.80;;;9.30;99.90;;;;;;5073599;28;20036;-83
2024/01/23 03:07:26;;;;;;;22.17;4.05;;;9.30;99.90;;;;;;5073102;28;20032;-83
2024/01/23 03:09:52;;;;;;;29.23;4.70;;;9.20;99.90;;;;;;5072618;28;20032;-83
2024/01/23 03:12:20;;;;;;;19.40;3.55;;;9.20;99.90;;;;;;5072378;28;20028;-83
2024/01/23 03:14:47;;;;;;;22.13;4.55;;;9.20;99.90;;;;;;5072286;28;20108;-83
2024/01/23 03:17:14;;;;;;;14.38;3.80;;;9.20;99.90;;;;;;5089352;28;20026;-83
2024/01/23 03:19:40;;;;;;;23.48;4.90;;;9.20;99.90;;;;;;5091043;28;20048;-83
2024/01/23 03:22:06;;;;;;;20.95;3.97;;;9.10;99.90;;;;;;5092500;28;20472;-83
2024/01/23 03:24:33;;;;;;;21.05;4.05;;;9.40;99.90;;;;;;5092627;28;20024;-83
2024/01/23 03:26:59;;;;;;;33.55;5.35;;;9.10;99.90;;;;;;5093051;28;20047;-83
2024/01/23 03:29:25;;;;;;;25.85;4.10;;;9.00;99.90;;;;;;5092119;28;20059;-83
2024/01/23 03:31:52;;;;;;;29.38;4.40;;;9.00;99.90;;;;;;5089198;28;20024;-83
2024/01/23 03:34:19;;;;;;;31.30;4.68;;;9.20;99.90;;;;;;5074311;28;20116;-83
2024/01/23 03:36:45;;;;;;;26.35;4.60;;;9.00;99.90;;;;;;5071862;28;20115;-83
2024/01/23 03:39:11;;;;;;;22.80;4.82;;;9.20;99.90;;;;;;5071759;28;20082;-82
2024/01/23 03:41:38;;;;;;;23.98;4.72;;;9.00;99.90;;;;;;5070553;28;20028;-82
2024/01/23 03:44:06;;;;;;;27.95;4.35;;;8.90;99.90;;;;;;5071903;28;20108;-83
2024/01/23 03:46:32;;;;;;;18.40;3.72;;;8.90;99.90;;;;;;5072459;28;20412;-84
2024/01/23 03:48:59;;;;;;;23.92;4.10;;;9.00;99.90;;;;;;5070902;28;20494;-84
2024/01/23 03:51:25;;;;;;;31.58;4.40;;;9.00;99.90;;;;;;5071568;28;20020;-84
2024/01/23 03:53:50;;;;;;;26.75;4.05;;;8.90;99.90;;;;;;5070154;28;20020;-84
2024/01/23 03:56:16;;;;;;;20.67;4.38;;;9.00;99.90;;;;;;5071483;28;20028;-84
2024/01/23 03:58:42;;;;;;;20.02;4.45;;;9.10;99.90;;;;;;5071347;28;20068;-84
2024/01/23 04:01:08;;;;;;;25.45;3.97;;;8.80;99.90;;;;;;5070965;28;20039;-84
2024/01/23 04:03:34;;;;;;;25.63;4.22;;;9.20;99.90;;;;;;5072227;28;20590;-84
2024/01/23 04:06:00;;;;;;;35.45;4.40;;;9.20;99.90;;;;;;5072065;28;20044;-85
2024/01/23 04:08:26;;;;;;;22.70;4.13;;;9.40;99.90;;;;;;5069779;28;20109;-84
2024/01/23 04:10:53;;;;;;;40.75;5.30;;;9.50;99.90;;;;;;5070321;28;20094;-84
2024/01/23 04:13:18;;;;;;;17.27;3.30;;;9.40;99.90;;;;;;5069447;28;20028;-84
2024/01/23 04:15:44;;;;;;;28.27;4.45;;;9.40;99.90;;;;;;5068924;28;20024;-84
2024/01/23 04:18:09;;;;;;;33.20;6.30;;;9.40;99.90;;;;;;5069523;28;20492;-83
2024/01/23 04:20:37;;;;;;;22.65;4.53;;;9.60;99.90;;;;;;5071556;28;20377;-84
2024/01/23 04:23:03;;;;;;;21.33;3.65;;;9.70;99.90;;;;;;5071307;28;20016;-83
2024/01/23 04:25:29;;;;;;;21.35;3.88;;;9.50;99.90;;;;;;5070704;28;20032;-83
2024/01/23 04:27:55;;;;;;;21.55;4.15;;;9.60;99.90;;;;;;5070275;28;20238;-83
2024/01/23 04:30:20;;;;;;;33.47;4.15;;;9.70;99.90;;;;;;5070168;28;20035;-82
2024/01/23 04:32:46;;;;;;;25.73;5.07;;;9.70;99.90;;;;;;5070832;28;20028;-83
2024/01/23 04:35:14;;;;;;;39.08;5.72;;;9.80;99.90;;;;;;5070105;28;20032;-82
2024/01/23 04:37:40;;;;;;;;;;;9.70;99.90;;;;;;5070562;28;20089;-82
2024/01/23 04:40:08;;;;;;;35.40;4.28;;;9.80;99.90;;;;;;5070820;28;20342;-82
2024/01/23 04:42:34;;;;;;;24.02;4.35;;;9.70;99.90;;;;;;5070906;28;20017;-83
2024/01/23 04:45:00;;;;;;;37.42;4.75;;;9.70;99.90;;;;;;5070169;28;20028;-83
2024/01/23 04:47:26;;;;;;;26.52;4.20;;;9.80;99.90;;;;;;5069717;28;20376;-83
2024/01/23 04:49:52;;;;;;;24.67;3.75;;;9.80;99.90;;;;;;5069520;28;20020;-83
2024/01/23 04:52:18;;;;;;;20.67;3.95;;;9.80;99.90;;;;;;5069849;28;20012;-83
2024/01/23 04:54:43;;;;;;;25.33;4.82;;;10.20;99.90;;;;;;5072136;28;20036;-82
2024/01/23 04:57:09;;;;;;;23.80;4.15;;;9.70;99.90;;;;;;5072667;28;20032;-83
2024/01/23 04:59:35;;;;;;;32.58;4.15;;;9.80;99.90;;;;;;5071195;28;20126;-83
2024/01/23 05:02:02;;;;;;;26.20;4.30;;;11.60;99.90;;;;;;5083122;28;20024;-89
2024/01/23 05:04:28;;;;;;;28.55;3.88;;;;;;;;;;5090462;28;20242;-90
2024/01/23 05:06:53;;;;;;;31.45;4.82;;;9.90;99.90;;;;;;5069104;28;20052;-85
2024/01/23 05:09:19;;;;;;;25.60;5.05;;;10.10;99.90;;;;;;5068980;28;20063;-86
2024/01/23 05:11:46;;;;;;;31.35;4.57;;;10.00;99.90;;;;;;5068884;28;20056;-85
2024/01/23 05:14:12;;;;;;;25.17;4.28;;;10.10;99.90;;;;;;5069056;28;20024;-87
2024/01/23 05:16:38;;;;;;;20.67;4.40;;;10.30;99.90;;;;;;5069668;28;20044;-89
2024/01/23 05:19:04;;;;;;;29.40;5.00;;;10.10;99.90;;;;;;5070773;28;20060;-88
2024/01/23 05:21:29;;;;;;;24.92;4.55;;;10.10;99.90;;;;;;5069071;28;20048;-88
2024/01/23 05:23:55;;;;;;;25.92;4.78;;;10.20;99.90;;;;;;5068375;28;20392;-88
2024/01/23 05:26:21;;;;;;;29.88;4.53;;;10.20;99.90;;;;;;5067540;28;20021;-87
2024/01/23 05:28:46;;;;;;;24.63;4.45;;;10.20;99.90;;;;;;5068691;28;20035;-87
2024/01/23 05:31:12;;;;;;;27.58;4.28;;;10.20;99.90;;;;;;5053615;28;20092;-88
2024/01/23 05:33:37;;;;;;;26.88;3.97;;;10.20;99.90;;;;;;5060759;28;20450;-86
2024/01/23 05:36:05;;;;;;;29.13;4.75;;;10.30;99.90;;;;;;5069783;28;20354;-87
2024/01/23 05:38:30;;;;;;;28.52;3.80;;;10.30;99.90;;;;;;5069238;28;20449;-85
2024/01/23 05:40:56;;;;;;;25.42;3.75;;;10.30;99.90;;;;;;5068592;28;20051;-87
2024/01/23 05:43:22;;;;;;;25.52;3.88;;;10.30;99.90;;;;;;5055439;28;20032;-86
2024/01/23 05:45:49;;;;;;;24.77;3.97;;;10.30;99.90;;;;;;5058842;28;20040;-86
2024/01/23 05:48:15;;;;;;;18.90;3.88;;;10.30;99.90;;;;;;5063665;28;20039;-86
2024/01/23 05:50:40;;;;;;;25.55;4.20;;;10.90;99.90;;;;;;5065570;28;20017;-86
2024/01/23 05:53:06;;;;;;;23.88;3.70;;;10.30;99.90;;;;;;5061263;28;20029;-86
2024/01/23 05:55:32;;;;;;;23.48;3.92;;;10.30;99.90;;;;;;5068068;28;20020;-85
2024/01/23 05:57:58;;;;;;;23.02;4.15;;;10.60;99.90;;;;;;5067592;28;20044;-88
2024/01/23 06:00:23;;;;;;;21.48;3.83;;;10.30;99.90;;;;;;5067994;28;20032;-88
2024/01/23 06:02:49;;;;;;;25.25;3.92;;;10.40;99.90;;;;;;5069197;28;20495;-85
2024/01/23 06:05:14;;;;;;;27.50;4.55;;;10.60;99.90;;;;;;5070597;28;20025;-86
2024/01/23 06:07:43;;;;;;;29.00;4.60;;;10.30;99.90;;;;;;5068520;28;20082;-85
2024/01/23 06:10:09;;;;;;;;;;;10.30;99.90;;;;;;5069125;28;20119;-86
2024/01/23 06:12:35;;;;;;;33.30;6.93;;;10.40;99.90;;;;;;5070678;28;19915;-86
2024/01/23 06:15:01;;;;;;;24.50;4.85;;;10.30;99.90;;;;;;5054005;28;20028;-86
2024/01/23 06:17:26;;;;;;;23.48;4.40;;;10.50;99.90;;;;;;5069103;28;20020;-86
2024/01/23 06:19:52;;;;;;;23.90;5.68;;;10.30;99.90;;;;;;5068771;28;20032;-86
2024/01/23 06:22:17;;;;;;;20.98;5.10;;;10.30;99.90;;;;;;5068974;28;20057;-84
2024/01/23 06:25:17;;;;;;;21.75;4.30;;;10.30;99.90;;;;;;5067567;28;20025;-85
2024/01/23 06:27:44;;;;;;;21.40;4.35;;;10.30;99.90;;;;;;5069120;28;20021;-86
2024/01/23 06:30:11;;;;;;;21.98;4.15;;;10.30;99.90;;;;;;5069620;28;20024;-85
2024/01/23 06:32:39;;;;;;;19.88;4.55;;;10.20;99.90;;;;;;5072910;28;20052;-86
2024/01/23 06:35:06;;;;;;;33.58;4.85;;;10.20;99.90;;;;;;5073039;28;20095;-86
2024/01/23 06:37:31;;;;;;;29.60;4.65;;;10.20;99.90;;;;;;5072587;28;20339;-85
2024/01/23 06:39:57;;;;;;;32.15;4.80;;;10.40;99.90;;;;;;5072908;28;20037;-85
2024/01/23 06:42:22;;;;;;;17.00;3.55;;;10.30;99.90;;;;;;5072936;28;20024;-86
2024/01/23 06:44:48;;;;;;;24.60;4.70;;;10.30;99.90;;;;;;5072844;28;20032;-85
2024/01/23 06:47:14;;;;;;;19.17;4.30;;;10.50;99.90;;;;;;5071495;28;20052;-86
2024/01/23 06:49:39;;;;;;;24.25;4.43;;;10.30;99.90;;;;;;5072405;28;20052;-87
2024/01/23 06:52:05;;;;;;;22.10;4.15;;;10.30;99.90;;;;;;5072852;28;20495;-84
2024/01/23 06:54:30;;;;;;;23.58;4.57;;;10.40;99.90;;;;;;5072820;28;20145;-86
2024/01/23 06:56:56;;;;;;;25.20;4.07;;;10.00;99.90;;;;;;5072178;28;20056;-87
2024/01/23 06:59:22;;;;;;;22.27;4.75;;;10.30;99.90;;;;;;5072587;28;20040;-87
2024/01/23 07:01:47;;;;;;;22.75;3.80;;;10.50;99.90;;;;;;5072521;28;20599;-87
2024/01/23 07:04:14;;;;;;;26.13;4.20;;;10.40;99.90;;;;;;5072972;28;20032;-86
2024/01/23 07:06:40;;;;;;;21.42;4.13;;;10.40;99.90;;;;;;5073436;28;20158;-87
2024/01/23 07:09:06;;;;;;;24.90;4.30;;;11.10;99.90;;;;;;5072452;28;20058;-86
2024/01/23 07:11:31;;;;;;;27.23;5.05;;;10.70;99.90;;;;;;5072395;28;20024;-86
2024/01/23 07:13:57;;;;;;;36.03;4.95;;;10.40;99.90;;;;;;5089397;28;20047;-88
2024/01/23 07:16:22;;;;;;;23.58;4.85;;;10.40;99.90;;;;;;5084565;28;20094;-87
2024/01/23 07:18:48;;;;;;;27.38;4.53;;;10.40;99.90;;;;;;5072169;28;20021;-88
2024/01/23 07:21:14;;;;;;;22.38;3.92;;;10.40;99.90;;;;;;5071448;28;20032;-86
2024/01/23 07:23:39;;;;;;;26.38;4.57;;;10.50;99.90;;;;;;5071592;28;20104;-86
2024/01/23 07:26:05;;;;;;;23.23;4.07;;;10.60;99.90;;;;;;5072013;28;20055;-88
2024/01/23 07:28:31;;;;;;;21.42;4.43;;;10.50;99.90;;;;;;5071960;28;20036;-86
2024/01/23 07:30:56;;;;;;;26.50;4.32;;;10.50;99.90;;;;;;5073012;28;20036;-85
2024/01/23 07:33:22;;;;;;;27.10;4.28;;;10.70;99.90;;;;;;5092299;28;20059;-86
2024/01/23 07:35:49;;;;;;;21.85;4.45;;;10.50;99.90;;;;;;5092127;28;20098;-86
2024/01/23 07:38:15;;;;;;;27.38;4.90;;;10.50;99.90;;;;;;5092272;28;20099;-85
2024/01/23 07:40:41;;;;;;;20.15;4.07;;;10.80;99.90;;;;;;5092834;28;20489;-87
2024/01/23 07:43:07;;;;;;;23.83;4.07;;;10.50;99.90;;;;;;5091324;28;20028;-86
2024/01/23 07:45:33;;;;;;;25.13;5.15;;;11.10;99.90;;;;;;5091925;28;20024;-86
2024/01/23 07:47:59;;;;;;;24.50;5.15;;;10.80;99.90;;;;;;5091953;28;20016;-86
2024/01/23 07:50:24;;;;;;;27.00;4.57;;;10.60;99.90;;;;;;5090576;28;20024;-86
2024/01/23 07:52:50;;;;;;;24.45;4.65;;;10.80;99.90;;;;;;5071438;28;20025;-86
2024/01/23 07:55:16;;;;;;;20.08;3.05;;;10.70;99.90;;;;;;5072148;28;20036;-85
2024/01/23 07:57:41;;;;;;;27.48;4.47;;;10.70;99.90;;;;;;5072411;28;20517;-87
2024/01/23 08:00:07;;;;;;;18.02;3.83;;;10.80;99.90;;;;;;5070025;28;20435;-87
2024/01/23 08:02:33;;;;;;;27.88;4.22;;;10.80;99.90;;;;;;5071378;28;20024;-86
2024/01/23 08:05:00;;;;;;;32.80;5.63;;;10.80;99.90;;;;;;5071356;28;20107;-85
2024/01/23 08:07:25;;;;;;;31.92;4.88;;;10.90;99.90;;;;;;5071294;28;20020;-85
2024/01/23 08:09:51;;;;;;;28.83;4.60;;;11.00;99.90;;;;;;5069953;28;20029;-85
2024/01/23 08:12:17;;;;;;;30.75;5.45;;;11.10;99.90;;;;;;5071728;28;20082;-85
2024/01/23 08:14:43;;;;;;;23.52;4.30;;;11.00;99.90;;;;;;5072101;28;20036;-85
2024/01/23 08:17:10;;;;;;;21.42;4.28;;;11.00;99.90;;;;;;5070718;28;20021;-86
2024/01/23 08:19:37;;;;;;;26.73;5.15;;;11.20;99.90;;;;;;5083456;28;20513;-87
2024/01/23 08:22:03;;;;;;;24.00;5.05;;;11.30;99.90;;;;;;5072941;28;20115;-86
2024/01/23 08:24:29;;;;;;;30.42;4.55;;;11.10;99.90;;;;;;5071169;28;20111;-87
2024/01/23 08:26:55;;;;;;;30.08;4.57;;;11.10;99.90;;;;;;5069697;28;20494;-86
2024/01/23 08:29:20;;;;;;;27.52;4.50;;;11.20;99.90;;;;;;5070682;28;20032;-86
2024/01/23 08:31:46;;;;;;;27.42;4.35;;;11.20;99.90;;;;;;5070381;28;20384;-86
2024/01/23 08:34:11;;;;;;;26.35;4.55;;;11.20;99.90;;;;;;5070949;28;20415;-86
2024/01/23 08:36:37;;;;;;;22.83;4.18;;;11.20;99.90;;;;;;5082332;28;20152;-86
2024/01/23 08:39:03;;;;;;;26.98;4.47;;;11.30;99.90;;;;;;5091161;28;20400;-87
2024/01/23 08:41:29;;;;;;;23.85;4.22;;;11.20;99.90;;;;;;5090720;28;20028;-86
2024/01/23 08:43:55;;;;;;;27.23;4.60;;;11.20;99.90;;;;;;5090846;28;20027;-86
2024/01/23 08:46:22;;;;;;;20.85;3.55;;;11.30;99.90;;;;;;5090780;28;20047;-85
2024/01/23 08:48:48;;;;;;;30.77;4.65;;;11.30;99.90;;;;;;5091632;28;20483;-86
2024/01/23 08:51:13;;;;;;;23.88;4.60;;;11.50;99.90;;;;;;5081883;28;20469;-85
2024/01/23 08:53:39;;;;;;;25.75;4.65;;;11.30;99.90;;;;;;5070511;28;20500;-85
2024/01/23 08:56:05;;;;;;;23.48;3.90;;;11.30;99.90;;;;;;5069367;28;20028;-85
2024/01/23 08:58:31;;;;;;;22.10;4.05;;;11.40;99.90;;;;;;5070144;28;20032;-85
2024/01/23 09:00:57;;;;;;;21.55;3.28;;;11.40;99.90;;;;;;5070054;28;20020;-86
2024/01/23 09:03:23;;;;;;;25.58;4.18;;;11.40;99.90;;;;;;5070696;28;20480;-85
2024/01/23 09:05:48;;;;;;;27.55;5.07;;;11.50;99.90;;;;;;5071764;28;20032;-86
2024/01/23 09:08:15;;;;;;;29.02;4.63;;;11.40;99.90;;;;;;5071291;28;20095;-84
2024/01/23 09:10:41;;;;;;;31.75;4.68;;;11.40;99.90;;;;;;5070504;28;20028;-85
2024/01/23 09:13:06;;;;;;;29.17;4.25;;;11.50;99.90;;;;;;5070000;28;20103;-85
2024/01/23 09:15:32;;;;;;;29.30;4.20;;;11.50;99.90;;;;;;5069991;28;20078;-85
2024/01/23 09:17:58;;;;;;;28.23;3.70;;;11.50;99.90;;;;;;5070193;28;20033;-85
2024/01/23 09:20:24;;;;;;;24.13;4.13;;;11.50;99.90;;;;;;5069747;28;20111;-85
2024/01/23 09:22:51;;;;;;;29.27;3.83;;;11.50;99.90;;;;;;5070662;28;20029;-84
2024/01/23 09:25:19;;;;;;;25.45;4.10;;;11.60;99.90;;;;;;5071138;28;20135;-87
2024/01/23 09:27:45;;;;;;;28.85;4.28;;;11.60;99.90;;;;;;5070103;28;20043;-86
2024/01/23 09:30:16;;;;;;;28.95;4.72;;;11.70;99.90;;;;;;5068058;28;20193;-86
2024/01/23 09:32:42;;;;;;;27.50;4.32;;;11.60;99.90;;;;;;5081402;28;20480;-85
2024/01/23 09:35:12;;;;;;;28.80;4.43;;;10.70;99.90;;;;;;5089790;28;20099;-86
2024/01/23 09:37:37;;;;;;;24.30;4.15;;;11.70;99.90;;;;;;5089992;28;20024;-86
2024/01/23 09:40:04;;;;;;;27.48;3.85;;;11.70;99.90;;;;;;5089593;28;20416;-85
2024/01/23 09:42:29;;;;;;;28.27;4.18;;;11.70;99.90;;;;;;5089764;28;20149;-84
2024/01/23 09:44:56;;;;;;;28.85;4.75;;;11.70;99.90;;;;;;5076332;28;20061;-85
2024/01/23 09:47:23;;;;;;;25.38;4.88;;;11.80;99.90;;;;;;5069420;28;20101;-84
2024/01/23 09:49:51;;;;;;;33.72;5.25;;;11.80;99.90;;;;;;5069068;28;20029;-87
2024/01/23 09:52:18;;;;;;;25.17;4.28;;;11.80;99.90;;;;;;5070352;28;20396;-87
2024/01/23 09:54:44;;;;;;;24.00;4.05;;;11.70;99.90;;;;;;5089311;28;20077;-86
2024/01/23 09:57:10;;;;;;;29.52;5.28;;;11.80;99.90;;;;;;5089627;28;20032;-85
2024/01/23 09:59:37;;;;;;;28.80;4.93;;;11.80;99.90;;;;;;5089406;28;20059;-86
2024/01/23 10:02:03;;;;;;;27.48;4.57;;;11.80;99.90;;;;;;5089474;28;20055;-85
2024/01/23 10:04:29;;;;;;;18.20;3.92;;;11.80;99.90;;;;;;5088244;28;20443;-86
2024/01/23 10:06:55;;;;;;;28.77;4.32;;;11.80;99.90;;;;;;5087319;28;20510;-85
2024/01/23 10:09:20;;;;;;;31.23;5.20;;;11.80;99.90;;;;;;5067680;28;20021;-85
2024/01/23 10:11:46;;;;;;;29.25;4.97;;;11.80;99.90;;;;;;5069075;28;20480;-85
2024/01/23 10:14:14;;;;;;;24.38;4.10;;;11.90;99.90;;;;;;5069016;28;20138;-85
2024/01/23 10:16:39;;;;;;;29.70;5.05;;;11.90;99.90;;;;;;5069150;28;20024;-85
2024/01/23 10:19:09;;;;;;;25.45;4.07;;;11.80;99.90;;;;;;5069046;28;20100;-87
2024/01/23 10:21:35;;;;;;;36.35;6.50;;;11.80;99.90;;;;;;5068961;28;20016;-85
2024/01/23 10:24:01;;;;;;;28.23;5.28;;;11.90;99.90;;;;;;5069897;28;20476;-85
2024/01/23 10:26:26;;;;;;;22.85;4.50;;;11.90;99.90;;;;;;5067611;28;20028;-85
2024/01/23 10:28:52;;;;;;;28.67;5.43;;;11.90;99.90;;;;;;5069656;28;20644;-85
2024/01/23 10:31:17;;;;;;;20.80;4.45;;;11.90;99.90;;;;;;5068844;28;20029;-86
2024/01/23 10:33:43;;;;;;;32.67;5.22;;;12.00;99.90;;;;;;5068895;28;20270;-85
2024/01/23 10:36:09;;;;;;;30.38;5.03;;;12.00;99.90;;;;;;5068940;28;20499;-85
2024/01/23 10:38:36;;;;;;;29.42;5.22;;;12.00;99.90;;;;;;5068605;28;20108;-84
2024/01/23 10:41:05;;;;;;;24.98;4.72;;;11.90;99.90;;;;;;5068434;28;20385;-86
2024/01/23 10:43:33;;;;;;;25.77;4.85;;;12.00;99.90;;;;;;5067626;28;20017;-84
2024/01/23 10:45:59;;;;;;;30.50;4.50;;;12.00;99.90;;;;;;5068682;28;20369;-85
2024/01/23 10:48:29;;;;;;;20.17;4.78;;;12.10;99.90;;;;;;5068712;28;20048;-84
2024/01/23 10:51:02;;;;;;;26.25;5.97;;;12.10;99.90;;;;;;5069223;28;20059;-84
2024/01/23 10:53:37;;;;;;;27.17;4.90;;;12.10;99.90;;;;;;5068763;28;20021;-86
2024/01/23 10:56:06;;;;;;;32.50;6.43;;;12.10;99.90;;;;;;5068840;28;20052;-85
2024/01/23 10:58:35;;;;;;;27.98;5.50;;;12.10;99.90;;;;;;5086296;28;20020;-86
2024/01/23 11:01:03;;;;;;;23.10;4.70;;;12.20;99.90;;;;;;5084659;28;20499;-86
2024/01/23 11:03:32;;;;;;;33.15;5.50;;;12.10;99.90;;;;;;5067176;28;20586;-86
2024/01/23 11:06:04;;;;;;;30.80;5.68;;;12.20;99.90;;;;;;5068523;28;20034;-86
2024/01/23 11:08:51;;;;;;;30.15;5.00;;;12.20;99.90;;;;;;5068587;28;20103;-86
2024/01/23 11:11:41;;;;;;;26.73;5.13;;;12.20;99.90;;;;;;5068555;28;20036;-87
2024/01/23 11:14:23;;;;;;;44.25;6.30;;;12.20;99.90;;;;;;5068407;28;20016;-86
2024/01/23 11:17:03;;;;;;;32.45;5.50;;;12.20;99.90;;;;;;5068141;28;20085;-85
2024/01/23 11:19:28;;;;;;;30.98;5.45;;;12.20;99.90;;;;;;5070624;28;20028;-85
2024/01/23 11:22:02;;;;;;;33.22;5.70;;;12.30;99.90;;;;;;5072956;28;20481;-87
2024/01/23 11:24:42;;;;;;;40.35;5.35;;;12.30;99.90;;;;;;5072070;28;20476;-85
2024/01/23 11:27:17;;;;;;;23.45;4.68;;;12.40;99.90;;;;;;5072083;28;20029;-86
2024/01/23 11:29:44;;;;;;;32.90;5.43;;;12.50;99.90;;;;;;5070565;28;20032;-86
2024/01/23 11:32:22;;;;;;;37.55;5.40;;;12.50;99.90;;;;;;5072736;28;20033;-84
2024/01/23 11:35:11;;;;;;;29.77;5.10;;;12.50;99.90;;;;;;5071913;28;20028;-85
2024/01/23 11:37:49;;;;;;;32.67;5.18;;;12.60;99.90;;;;;;5070247;28;20039;-86
2024/01/23 11:40:27;;;;;;;33.50;5.18;;;12.60;99.90;;;;;;5070544;28;20029;-86
2024/01/23 11:42:54;;;;;;;36.20;5.85;;;12.70;99.90;;;;;;5078388;28;20472;-85
2024/01/23 11:45:30;;;;;;;30.60;5.10;;;12.80;99.90;;;;;;5080274;28;20094;-85
2024/01/23 11:48:05;;;;;;;36.20;5.78;;;12.80;99.90;;;;;;5073147;28;20436;-85
2024/01/23 11:50:35;;;;;;;36.22;6.35;;;12.80;99.90;;;;;;5071405;28;20447;-84
2024/01/23 11:53:02;;;;;;;35.50;5.47;;;12.80;99.90;;;;;;5071182;28;20034;-86
2024/01/23 11:55:28;;;;;;;31.15;5.45;;;12.80;99.90;;;;;;5071874;28;20480;-85
2024/01/23 11:57:57;;;;;;;33.70;6.10;;;12.90;99.90;;;;;;5071697;28;20082;-85
2024/01/23 12:00:22;;;;;;;;;;;13.00;99.90;;;;;;5083573;28;20051;-86
2024/01/23 12:02:50;;;;;;;28.58;5.28;;;13.00;99.90;;;;;;5091336;28;19908;-85
2024/01/23 12:05:17;;;;;;;31.15;5.43;;;12.90;99.90;;;;;;5077178;28;20396;-84
2024/01/23 12:07:43;;;;;;;35.05;5.80;;;12.90;99.90;;;;;;5070661;28;20032;-84
2024/01/23 12:10:14;;;;;;;34.30;5.95;;;12.90;99.90;;;;;;5071127;28;20024;-85
2024/01/23 12:12:40;;;;;;;33.15;5.68;;;12.90;99.90;;;;;;5070872;28;20096;-84
2024/01/23 12:15:07;;;;;;;34.83;5.82;;;12.90;99.90;;;;;;5071073;28;20111;-84
2024/01/23 12:17:36;;;;;;;33.92;5.88;;;12.90;99.90;;;;;;5070863;28;20013;-84
2024/01/23 12:20:09;;;;;;;34.17;5.55;;;13.00;99.90;;;;;;5078936;28;20043;-85
2024/01/23 12:22:38;;;;;;;29.45;5.20;;;13.00;99.90;;;;;;5083734;28;20017;-85
2024/01/23 12:25:05;;;;;;;37.53;5.90;;;13.00;99.90;;;;;;5066801;28;20024;-86
2024/01/23 12:27:32;;;;;;;34.33;5.60;;;13.00;99.90;;;;;;5068778;28;20021;-84
2024/01/23 12:30:01;;;;;;;25.45;4.60;;;12.90;99.90;;;;;;5071268;28;20036;-86
2024/01/23 12:32:28;;;;;;;26.30;4.18;;;13.10;99.90;;;;;;5071588;28;20052;-85
2024/01/23 12:34:54;;;;;;;24.27;4.03;;;13.00;99.90;;;;;;5070529;28;20547;-84
2024/01/23 12:37:39;;;;;;;27.45;4.85;;;13.10;99.90;;;;;;5070421;28;20021;-85
2024/01/23 12:40:13;;;;;;;30.20;5.65;;;13.10;99.90;;;;;;5070614;28;20067;-85